King Of Prussia, PA (19406)

6:33 AM EST on December 05, 2016 (GMT -0500)
Upper Merion Area SD | | Change Station

Elev 131 ft 40.10 °N, 75.38 °W | Updated 44 minutes ago

Overcast
Overcast
39.2 °F
Feels Like 39 °F
N
0.0
Wind Variable Wind from West
Gusts 0.0 mph

Today
High -- | Low -- °F
--% Chance of Precip.
Yesterday
High -- | Low -- °F
Precip. -- in
Pressure 29.99 in
Visibility 3.0 miles
Clouds Overcast 800 ft
Windchill 39 °F
Dew Point 39 °F
Humidity 98%
Rainfall 0.14 in
Snow Depth Not available.
7:08 AM 4:35 PM
Waxing Crescent, 31% visible
METAR KLOM 051115Z AUTO 00000KT 3SM OVC008 03/03 A2999 RMK AO1
Pressure 29.99 in
Visibility 3.0 miles
Clouds Overcast 800 ft
Windchill 39 °F
Dew Point 39 °F
Humidity 98%
Rainfall 0.14 in
Snow Depth Not available.
7:08 AM 4:35 PM
Waxing Crescent, 31% visible
METAR KLOM 051115Z AUTO 00000KT 3SM OVC008 03/03 A2999 RMK AO1

10-Day Weather Forecast

Almanac

Astronomy

Dec. 05, 2016 Rise Set
Actual Time
Civil Twilight
Nautical Twilight
Astronomical Twilight
Moon
Length of Visible Light
Length of Day
Tomorrow will be .
, % of the Moon is Illuminated

Today's Extremes

State Highs State Lows

Community

WunderPhotos

Upload Photos

1,955,778 photos uploaded!

WunderBlog® & News

Nearby

Air Quality

  Air Quality AQ Index Pollutant
Not available.

Snow Depth

Station Depth Elevation

Earthquake Activity

City Distance Mag. Time & Date
Minimum magnitude displayed is 2.5.

Coastal Water Temperatures

Place Temperature

Stations

Nearby Weather Stations

Station Location Temp. Windchill Dew Point Humidity Wind Precip. Elev Updated Type
                   

Watches & Warnings

There are currently no watches in effect.